Terminal Aerodrome Forecast
Issued by NWS

Home | Current Version | Previous Version | Graphics & Text | Print | Product List | Glossary On
Versions: 1 2 3 4 5 6 7 8 9 10 11 12 13 14 15 16 17 18
458
FTUS43 KICT 192025 AAB
TAFSLN
TAF AMD
KSLN 192025Z 1920/2018 07012KT P6SM -RA OVC025
      TEMPO 1920/1924 3SM RA OVC015
     FM200500 09012KT 3SM RA OVC008
     FM201000 01012KT P6SM OVC007=

USA.gov is the U.S. government's official web portal to all federal, state and local government web resources and services.